Time;durP1;ratioP1;P1;durP2;ratioP2;P2;SDS_P1;SDS_P2;PMS_P1;PMS_P2;Temp;Humidity;BMP_temperature;BMP_pressure;BME280_temperature;BME280_humidity;BME280_pressure;Samples;Min_cycle;Max_cycle;Signal;HPM_P1;HPM_P2
2022/02/14 15:27:26;;;;;;;;;67.00;50.25;;;;;16.79;54.60;100206.47;5116201;27;45483;-77
2022/02/14 15:29:55;;;;;;;;;69.50;49.75;;;;;16.93;54.61;100220.47;5111547;27;45767;-76
2022/02/14 15:32:24;;;;;;;;;71.50;50.75;;;;;17.12;54.28;100200.91;5106644;27;45465;-78
2022/02/14 15:34:50;;;;;;;;;84.75;61.50;;;;;17.35;53.58;100198.84;5108078;27;45689;-82
2022/02/14 15:37:16;;;;;;;;;73.75;49.50;;;;;17.61;53.20;100203.63;5108251;27;45627;-78
2022/02/14 15:39:41;;;;;;;;;69.50;47.00;;;;;17.85;52.87;100194.28;5105847;27;45543;-78
2022/02/14 15:42:07;;;;;;;;;75.00;52.50;;;;;18.12;52.78;100198.06;5101902;27;46225;-80
2022/02/14 15:44:32;;;;;;;;;67.00;48.50;;;;;18.38;52.46;100192.03;5109233;27;45612;-79
2022/02/14 15:46:58;;;;;;;;;72.50;52.25;;;;;18.64;51.86;100201.28;5101406;27;45959;-79
2022/02/14 15:49:25;;;;;;;;;65.50;47.25;;;;;18.86;51.39;100197.31;5107582;27;45465;-77
2022/02/14 15:51:51;;;;;;;;;65.50;46.00;;;;;19.09;50.78;100205.00;5112753;27;45472;-82
2022/02/14 15:54:17;;;;;;;;;65.75;46.50;;;;;19.29;51.15;100205.69;5108974;27;45531;-78
2022/02/14 15:56:43;;;;;;;;;60.50;43.00;;;;;19.52;50.23;100205.25;5106652;27;45414;-86
2022/02/14 15:59:09;;;;;;;;;61.50;42.75;;;;;19.69;50.21;100191.91;5111754;27;45642;-81
2022/02/14 16:01:35;;;;;;;;;60.00;41.50;;;;;19.88;49.37;100191.72;5115691;27;45415;-79
2022/02/14 16:04:00;;;;;;;;;56.75;38.00;;;;;20.03;49.52;100185.81;5111536;27;45434;-88
2022/02/14 16:06:27;;;;;;;;;52.00;40.75;;;;;20.19;49.28;100201.19;5107179;27;51014;-77
2022/02/14 16:08:52;;;;;;;;;53.25;41.75;;;;;20.30;48.92;100189.31;5105821;27;46584;-79
2022/02/14 16:11:19;;;;;;;;;56.00;40.50;;;;;20.45;48.79;100188.72;5104419;27;45471;-81
2022/02/14 16:13:44;;;;;;;;;54.75;39.25;;;;;20.58;48.63;100194.50;5110571;27;48522;-81
2022/02/14 16:16:10;;;;;;;;;39.75;31.00;;;;;20.69;48.18;100187.97;5113022;27;46404;-80
2022/02/14 16:18:35;;;;;;;;;51.00;36.25;;;;;20.83;48.50;100194.59;5113027;27;45553;-81
2022/02/14 16:21:01;;;;;;;;;49.25;35.50;;;;;20.92;47.98;100199.03;5114694;27;45475;-79
2022/02/14 16:23:26;;;;;;;;;51.00;38.75;;;;;21.01;48.42;100205.28;5105139;27;48302;-80
2022/02/14 16:25:53;;;;;;;;;49.50;35.75;;;;;21.12;48.24;100195.19;5105603;27;45645;-79
2022/02/14 16:28:19;;;;;;;;;50.75;34.75;;;;;21.18;47.87;100195.38;5113043;27;55767;-76
2022/02/14 16:30:44;;;;;;;;;48.50;34.75;;;;;21.28;47.58;100205.16;5112667;27;45770;-78
2022/02/14 16:33:10;;;;;;;;;43.25;33.75;;;;;21.36;47.91;100198.94;5103437;27;45641;-82
2022/02/14 16:35:35;;;;;;;;;47.00;36.00;;;;;21.39;47.71;100201.31;5104734;27;45570;-78
2022/02/14 16:38:00;;;;;;;;;50.50;33.75;;;;;21.46;47.60;100202.34;5100240;27;45445;-69
2022/02/14 16:40:26;;;;;;;;;42.00;34.00;;;;;21.54;47.62;100209.59;5094133;27;48185;-70
2022/02/14 16:42:51;;;;;;;;;47.00;34.25;;;;;21.59;47.72;100205.34;5108501;27;45462;-68
2022/02/14 16:45:17;;;;;;;;;33.50;24.50;;;;;21.65;46.76;100216.50;5088553;27;45528;-70
2022/02/14 17:25:06;;;;;;;;;26.75;19.75;;;;;19.40;51.34;100298.81;5054337;27;45444;-81
2022/02/14 17:27:32;;;;;;;;;27.50;20.00;;;;;19.39;51.73;100305.22;5028582;27;45563;-80
2022/02/14 17:29:58;;;;;;;;;36.75;22.25;;;;;19.42;52.04;100310.28;5042622;27;45331;-74
2022/02/14 17:32:23;;;;;;;;;27.50;17.00;;;;;19.52;51.20;100302.16;5063245;27;45501;-83
2022/02/14 17:34:48;;;;;;;;;25.75;21.00;;;;;19.64;51.43;100283.06;5079502;27;45483;-81
2022/02/14 17:37:14;;;;;;;;;34.00;21.25;;;;;19.81;50.56;100294.84;5057916;27;45448;-88
2022/02/14 17:39:43;;;;;;;;;33.00;24.75;;;;;19.97;50.78;100292.31;5061031;27;45445;-75
2022/02/14 17:42:09;;;;;;;;;41.50;24.75;;;;;20.17;50.58;100294.84;5053876;27;45631;-75
2022/02/14 17:44:35;;;;;;;;;31.75;23.75;;;;;20.37;50.57;100297.34;5050941;27;45446;-75
2022/02/14 17:47:00;;;;;;;;;32.75;22.50;;;;;20.57;50.00;100287.19;5042737;27;45437;-75
2022/02/14 17:49:26;;;;;;;;;27.00;22.75;;;;;20.76;49.99;100296.06;5044730;27;47840;-76
2022/02/14 17:51:52;;;;;;;;;39.50;25.00;;;;;20.91;49.56;100290.91;5058227;27;45393;-77
2022/02/14 17:54:17;;;;;;;;;27.00;20.50;;;;;21.07;48.41;100292.84;5041443;27;46375;-81
2022/02/14 17:56:42;;;;;;;;;18.50;16.00;;;;;21.18;48.21;100305.19;5085709;27;45755;-80
